sensor_id;sensor_type;location;lat;lon;timestamp;P1;durP1;ratioP1;P2;durP2;ratioP2
11319;SDS011;5715;48.234;14.320;2023-06-01T00:02:08;3.95;;;3.40;;
11319;SDS011;5715;48.234;14.320;2023-06-01T00:04:56;4.90;;;3.20;;
11319;SDS011;5715;48.234;14.320;2023-06-01T00:07:43;5.57;;;3.38;;
11319;SDS011;5715;48.234;14.320;2023-06-01T00:10:32;2.83;;;2.58;;
11319;SDS011;5715;48.234;14.320;2023-06-01T00:13:20;3.65;;;3.22;;
11319;SDS011;5715;48.234;14.320;2023-06-01T00:16:08;4.40;;;2.90;;
11319;SDS011;5715;48.234;14.320;2023-06-01T00:18:57;3.13;;;2.55;;
11319;SDS011;5715;48.234;14.320;2023-06-01T00:21:47;3.97;;;2.55;;
11319;SDS011;5715;48.234;14.320;2023-06-01T00:24:35;3.58;;;2.78;;
11319;SDS011;5715;48.234;14.320;2023-06-01T00:27:23;5.15;;;2.80;;
11319;SDS011;5715;48.234;14.320;2023-06-01T00:30:11;3.13;;;2.53;;
11319;SDS011;5715;48.234;14.320;2023-06-01T00:33:00;7.18;;;2.92;;
11319;SDS011;5715;48.234;14.320;2023-06-01T00:35:48;2.70;;;2.28;;
11319;SDS011;5715;48.234;14.320;2023-06-01T00:38:36;3.20;;;2.65;;
11319;SDS011;5715;48.234;14.320;2023-06-01T00:41:24;6.63;;;2.67;;
11319;SDS011;5715;48.234;14.320;2023-06-01T00:44:11;3.35;;;2.80;;
11319;SDS011;5715;48.234;14.320;2023-06-01T00:46:59;3.33;;;2.33;;
11319;SDS011;5715;48.234;14.320;2023-06-01T00:49:47;3.38;;;2.65;;
11319;SDS011;5715;48.234;14.320;2023-06-01T00:52:36;5.43;;;2.90;;
11319;SDS011;5715;48.234;14.320;2023-06-01T00:55:25;2.45;;;2.25;;
11319;SDS011;5715;48.234;14.320;2023-06-01T00:58:14;4.13;;;2.75;;
11319;SDS011;5715;48.234;14.320;2023-06-01T01:01:03;4.55;;;3.10;;
11319;SDS011;5715;48.234;14.320;2023-06-01T01:03:51;2.85;;;2.47;;
11319;SDS011;5715;48.234;14.320;2023-06-01T01:18:51;3.13;;;2.83;;
11319;SDS011;5715;48.234;14.320;2023-06-01T01:25:31;3.72;;;2.47;;
11319;SDS011;5715;48.234;14.320;2023-06-01T01:28:51;3.60;;;2.95;;
11319;SDS011;5715;48.234;14.320;2023-06-01T01:32:02;4.03;;;2.72;;
11319;SDS011;5715;48.234;14.320;2023-06-01T01:34:52;4.00;;;2.58;;
11319;SDS011;5715;48.234;14.320;2023-06-01T01:37:53;20.65;;;2.58;;
11319;SDS011;5715;48.234;14.320;2023-06-01T01:40:42;7.82;;;2.65;;
11319;SDS011;5715;48.234;14.320;2023-06-01T01:43:31;5.75;;;2.83;;
11319;SDS011;5715;48.234;14.320;2023-06-01T01:46:26;5.15;;;2.03;;
11319;SDS011;5715;48.234;14.320;2023-06-01T01:49:18;4.80;;;2.65;;
11319;SDS011;5715;48.234;14.320;2023-06-01T01:52:18;2.97;;;2.15;;
11319;SDS011;5715;48.234;14.320;2023-06-01T01:55:16;1.90;;;1.75;;
11319;SDS011;5715;48.234;14.320;2023-06-01T01:58:10;3.80;;;2.30;;
11319;SDS011;5715;48.234;14.320;2023-06-01T02:01:00;2.80;;;1.73;;
11319;SDS011;5715;48.234;14.320;2023-06-01T02:03:59;5.03;;;2.08;;
11319;SDS011;5715;48.234;14.320;2023-06-01T02:06:54;3.95;;;2.47;;
11319;SDS011;5715;48.234;14.320;2023-06-01T02:09:42;3.63;;;3.08;;
11319;SDS011;5715;48.234;14.320;2023-06-01T02:12:30;3.30;;;1.90;;
11319;SDS011;5715;48.234;14.320;2023-06-01T02:15:18;3.25;;;2.83;;
11319;SDS011;5715;48.234;14.320;2023-06-01T02:18:05;2.28;;;2.08;;
11319;SDS011;5715;48.234;14.320;2023-06-01T02:20:54;5.53;;;2.50;;
11319;SDS011;5715;48.234;14.320;2023-06-01T02:23:42;4.20;;;2.75;;
11319;SDS011;5715;48.234;14.320;2023-06-01T02:26:30;2.72;;;2.25;;
11319;SDS011;5715;48.234;14.320;2023-06-01T02:29:19;3.33;;;2.00;;
11319;SDS011;5715;48.234;14.320;2023-06-01T02:32:11;5.07;;;3.22;;
11319;SDS011;5715;48.234;14.320;2023-06-01T02:34:59;4.05;;;2.80;;
11319;SDS011;5715;48.234;14.320;2023-06-01T02:37:47;3.22;;;2.53;;
11319;SDS011;5715;48.234;14.320;2023-06-01T02:40:34;3.30;;;2.67;;
11319;SDS011;5715;48.234;14.320;2023-06-01T02:43:22;2.53;;;2.33;;
11319;SDS011;5715;48.234;14.320;2023-06-01T02:46:10;3.38;;;3.03;;
11319;SDS011;5715;48.234;14.320;2023-06-01T02:48:58;3.70;;;3.40;;
11319;SDS011;5715;48.234;14.320;2023-06-01T02:51:46;3.85;;;3.35;;
11319;SDS011;5715;48.234;14.320;2023-06-01T02:54:33;3.60;;;2.90;;
11319;SDS011;5715;48.234;14.320;2023-06-01T02:57:22;5.97;;;3.90;;
11319;SDS011;5715;48.234;14.320;2023-06-01T03:00:10;5.25;;;3.42;;
11319;SDS011;5715;48.234;14.320;2023-06-01T03:03:02;6.28;;;4.35;;
11319;SDS011;5715;48.234;14.320;2023-06-01T03:05:52;4.32;;;3.85;;
11319;SDS011;5715;48.234;14.320;2023-06-01T03:08:42;4.60;;;3.92;;
11319;SDS011;5715;48.234;14.320;2023-06-01T03:11:30;3.70;;;3.10;;
11319;SDS011;5715;48.234;14.320;2023-06-01T03:14:18;5.00;;;3.58;;
11319;SDS011;5715;48.234;14.320;2023-06-01T03:17:06;3.47;;;3.10;;
11319;SDS011;5715;48.234;14.320;2023-06-01T03:19:54;11.20;;;4.10;;
11319;SDS011;5715;48.234;14.320;2023-06-01T03:22:42;8.55;;;4.28;;
11319;SDS011;5715;48.234;14.320;2023-06-01T03:25:31;5.03;;;3.83;;
11319;SDS011;5715;48.234;14.320;2023-06-01T03:28:20;5.28;;;3.80;;
11319;SDS011;5715;48.234;14.320;2023-06-01T03:31:08;6.30;;;3.90;;
11319;SDS011;5715;48.234;14.320;2023-06-01T03:33:58;6.37;;;4.33;;
11319;SDS011;5715;48.234;14.320;2023-06-01T03:36:46;4.30;;;3.90;;
11319;SDS011;5715;48.234;14.320;2023-06-01T03:39:34;10.20;;;3.60;;
11319;SDS011;5715;48.234;14.320;2023-06-01T03:42:22;6.40;;;3.53;;
11319;SDS011;5715;48.234;14.320;2023-06-01T03:45:11;3.90;;;3.50;;
11319;SDS011;5715;48.234;14.320;2023-06-01T03:48:00;3.33;;;3.03;;
11319;SDS011;5715;48.234;14.320;2023-06-01T03:50:47;4.38;;;3.25;;
11319;SDS011;5715;48.234;14.320;2023-06-01T03:53:35;3.65;;;2.65;;
11319;SDS011;5715;48.234;14.320;2023-06-01T03:56:24;3.78;;;2.80;;
11319;SDS011;5715;48.234;14.320;2023-06-01T03:59:12;4.50;;;3.13;;
11319;SDS011;5715;48.234;14.320;2023-06-01T04:02:00;3.00;;;2.45;;
11319;SDS011;5715;48.234;14.320;2023-06-01T04:04:49;3.83;;;3.30;;
11319;SDS011;5715;48.234;14.320;2023-06-01T04:07:38;3.58;;;3.33;;
11319;SDS011;5715;48.234;14.320;2023-06-01T04:10:25;3.33;;;3.03;;
11319;SDS011;5715;48.234;14.320;2023-06-01T04:13:13;3.80;;;3.40;;
11319;SDS011;5715;48.234;14.320;2023-06-01T04:16:01;8.25;;;4.20;;
11319;SDS011;5715;48.234;14.320;2023-06-01T04:18:49;5.03;;;3.83;;
11319;SDS011;5715;48.234;14.320;2023-06-01T04:21:38;3.53;;;3.22;;
11319;SDS011;5715;48.234;14.320;2023-06-01T04:24:26;8.20;;;3.42;;
11319;SDS011;5715;48.234;14.320;2023-06-01T04:27:14;6.95;;;4.15;;
11319;SDS011;5715;48.234;14.320;2023-06-01T04:30:06;6.85;;;6.25;;
11319;SDS011;5715;48.234;14.320;2023-06-01T04:32:54;8.40;;;7.90;;
11319;SDS011;5715;48.234;14.320;2023-06-01T04:35:42;7.30;;;6.80;;
11319;SDS011;5715;48.234;14.320;2023-06-01T04:38:30;8.23;;;4.53;;
11319;SDS011;5715;48.234;14.320;2023-06-01T04:41:22;5.60;;;3.65;;
11319;SDS011;5715;48.234;14.320;2023-06-01T04:44:11;4.18;;;3.00;;
11319;SDS011;5715;48.234;14.320;2023-06-01T04:46:59;8.27;;;2.55;;
11319;SDS011;5715;48.234;14.320;2023-06-01T04:49:50;4.47;;;3.03;;
11319;SDS011;5715;48.234;14.320;2023-06-01T04:52:39;4.43;;;2.55;;
11319;SDS011;5715;48.234;14.320;2023-06-01T04:55:28;3.65;;;3.35;;
11319;SDS011;5715;48.234;14.320;2023-06-01T04:58:18;6.93;;;3.50;;
11319;SDS011;5715;48.234;14.320;2023-06-01T05:01:06;3.50;;;3.20;;
11319;SDS011;5715;48.234;14.320;2023-06-01T05:03:54;5.40;;;3.08;;
11319;SDS011;5715;48.234;14.320;2023-06-01T05:06:42;3.65;;;3.08;;
11319;SDS011;5715;48.234;14.320;2023-06-01T05:09:30;4.82;;;3.00;;
11319;SDS011;5715;48.234;14.320;2023-06-01T05:12:18;4.32;;;2.78;;
11319;SDS011;5715;48.234;14.320;2023-06-01T05:15:07;2.50;;;2.28;;
11319;SDS011;5715;48.234;14.320;2023-06-01T05:17:58;3.22;;;2.65;;
11319;SDS011;5715;48.234;14.320;2023-06-01T05:20:46;4.78;;;2.85;;
11319;SDS011;5715;48.234;14.320;2023-06-01T05:23:33;11.88;;;3.28;;
11319;SDS011;5715;48.234;14.320;2023-06-01T05:26:21;3.90;;;2.92;;
11319;SDS011;5715;48.234;14.320;2023-06-01T05:29:09;6.90;;;3.15;;
11319;SDS011;5715;48.234;14.320;2023-06-01T05:31:57;3.08;;;2.67;;
11319;SDS011;5715;48.234;14.320;2023-06-01T05:34:45;2.95;;;2.75;;
11319;SDS011;5715;48.234;14.320;2023-06-01T05:37:33;3.95;;;2.95;;
11319;SDS011;5715;48.234;14.320;2023-06-01T05:40:21;3.80;;;3.40;;
11319;SDS011;5715;48.234;14.320;2023-06-01T05:43:09;3.28;;;2.65;;
11319;SDS011;5715;48.234;14.320;2023-06-01T05:45:56;8.07;;;2.80;;
11319;SDS011;5715;48.234;14.320;2023-06-01T05:48:44;3.10;;;2.80;;
11319;SDS011;5715;48.234;14.320;2023-06-01T05:51:32;2.78;;;2.50;;
11319;SDS011;5715;48.234;14.320;2023-06-01T05:54:23;4.10;;;2.75;;
11319;SDS011;5715;48.234;14.320;2023-06-01T05:57:11;3.03;;;2.70;;
11319;SDS011;5715;48.234;14.320;2023-06-01T05:59:59;3.45;;;2.42;;
11319;SDS011;5715;48.234;14.320;2023-06-01T06:02:47;4.20;;;3.25;;
11319;SDS011;5715;48.234;14.320;2023-06-01T06:05:35;8.95;;;3.45;;
11319;SDS011;5715;48.234;14.320;2023-06-01T06:08:23;2.55;;;2.33;;
11319;SDS011;5715;48.234;14.320;2023-06-01T06:11:11;3.05;;;2.63;;
11319;SDS011;5715;48.234;14.320;2023-06-01T06:13:58;6.45;;;2.75;;
11319;SDS011;5715;48.234;14.320;2023-06-01T06:16:47;4.22;;;2.88;;
11319;SDS011;5715;48.234;14.320;2023-06-01T06:19:34;6.22;;;2.55;;
11319;SDS011;5715;48.234;14.320;2023-06-01T06:22:22;5.00;;;1.88;;
11319;SDS011;5715;48.234;14.320;2023-06-01T06:25:10;3.05;;;2.15;;
11319;SDS011;5715;48.234;14.320;2023-06-01T06:27:58;3.17;;;2.10;;
11319;SDS011;5715;48.234;14.320;2023-06-01T06:30:46;3.10;;;2.00;;
11319;SDS011;5715;48.234;14.320;2023-06-01T06:33:35;4.15;;;1.98;;
11319;SDS011;5715;48.234;14.320;2023-06-01T06:36:23;3.10;;;1.75;;
11319;SDS011;5715;48.234;14.320;2023-06-01T06:39:11;3.88;;;2.72;;
11319;SDS011;5715;48.234;14.320;2023-06-01T06:41:59;6.68;;;2.97;;
11319;SDS011;5715;48.234;14.320;2023-06-01T06:44:49;3.30;;;2.83;;
11319;SDS011;5715;48.234;14.320;2023-06-01T06:47:36;7.00;;;3.55;;
11319;SDS011;5715;48.234;14.320;2023-06-01T06:50:24;3.42;;;3.10;;
11319;SDS011;5715;48.234;14.320;2023-06-01T06:53:12;4.30;;;3.28;;
11319;SDS011;5715;48.234;14.320;2023-06-01T06:56:00;3.90;;;3.58;;
11319;SDS011;5715;48.234;14.320;2023-06-01T06:58:48;4.35;;;3.28;;
11319;SDS011;5715;48.234;14.320;2023-06-01T07:01:52;4.13;;;3.40;;
11319;SDS011;5715;48.234;14.320;2023-06-01T07:04:40;4.85;;;3.10;;
11319;SDS011;5715;48.234;14.320;2023-06-01T07:07:28;3.35;;;3.05;;
11319;SDS011;5715;48.234;14.320;2023-06-01T07:10:16;4.35;;;4.10;;
11319;SDS011;5715;48.234;14.320;2023-06-01T07:13:04;2.70;;;2.47;;
11319;SDS011;5715;48.234;14.320;2023-06-01T07:15:52;2.60;;;2.40;;
11319;SDS011;5715;48.234;14.320;2023-06-01T07:18:41;3.55;;;2.75;;
11319;SDS011;5715;48.234;14.320;2023-06-01T07:21:32;3.55;;;2.80;;
11319;SDS011;5715;48.234;14.320;2023-06-01T07:24:20;4.18;;;3.38;;
11319;SDS011;5715;48.234;14.320;2023-06-01T07:27:07;2.63;;;2.42;;
11319;SDS011;5715;48.234;14.320;2023-06-01T07:29:55;8.20;;;2.72;;
11319;SDS011;5715;48.234;14.320;2023-06-01T07:32:43;3.40;;;3.10;;
11319;SDS011;5715;48.234;14.320;2023-06-01T07:35:33;4.95;;;2.80;;
11319;SDS011;5715;48.234;14.320;2023-06-01T07:38:21;5.63;;;2.75;;
11319;SDS011;5715;48.234;14.320;2023-06-01T07:41:09;4.90;;;3.00;;
11319;SDS011;5715;48.234;14.320;2023-06-01T07:43:57;2.90;;;2.65;;
11319;SDS011;5715;48.234;14.320;2023-06-01T07:46:45;4.07;;;3.47;;
11319;SDS011;5715;48.234;14.320;2023-06-01T07:49:33;3.03;;;2.67;;
11319;SDS011;5715;48.234;14.320;2023-06-01T07:52:24;8.35;;;3.00;;
11319;SDS011;5715;48.234;14.320;2023-06-01T07:55:11;3.97;;;3.58;;
11319;SDS011;5715;48.234;14.320;2023-06-01T07:58:00;4.97;;;3.45;;
11319;SDS011;5715;48.234;14.320;2023-06-01T08:00:48;5.50;;;3.47;;
11319;SDS011;5715;48.234;14.320;2023-06-01T08:03:43;3.42;;;2.95;;
11319;SDS011;5715;48.234;14.320;2023-06-01T08:06:31;2.72;;;2.53;;
11319;SDS011;5715;48.234;14.320;2023-06-01T08:09:22;3.45;;;3.15;;
11319;SDS011;5715;48.234;14.320;2023-06-01T08:12:13;7.95;;;2.90;;
11319;SDS011;5715;48.234;14.320;2023-06-01T08:15:05;4.75;;;3.28;;
11319;SDS011;5715;48.234;14.320;2023-06-01T08:17:54;6.43;;;2.70;;
11319;SDS011;5715;48.234;14.320;2023-06-01T08:20:43;4.25;;;2.90;;
11319;SDS011;5715;48.234;14.320;2023-06-01T08:23:32;3.30;;;3.00;;
11319;SDS011;5715;48.234;14.320;2023-06-01T08:26:21;3.30;;;3.00;;
11319;SDS011;5715;48.234;14.320;2023-06-01T08:29:12;3.35;;;2.90;;
11319;SDS011;5715;48.234;14.320;2023-06-01T08:32:00;4.38;;;3.13;;
11319;SDS011;5715;48.234;14.320;2023-06-01T08:34:48;5.57;;;3.00;;
11319;SDS011;5715;48.234;14.320;2023-06-01T08:37:37;2.92;;;2.70;;
11319;SDS011;5715;48.234;14.320;2023-06-01T08:40:25;3.97;;;2.70;;
11319;SDS011;5715;48.234;14.320;2023-06-01T08:43:18;5.07;;;2.80;;
11319;SDS011;5715;48.234;14.320;2023-06-01T08:46:07;3.47;;;2.75;;
11319;SDS011;5715;48.234;14.320;2023-06-01T08:48:56;2.22;;;2.03;;
11319;SDS011;5715;48.234;14.320;2023-06-01T08:51:47;7.45;;;2.05;;
11319;SDS011;5715;48.234;14.320;2023-06-01T08:54:37;3.08;;;2.00;;
11319;SDS011;5715;48.234;14.320;2023-06-01T08:57:26;4.63;;;4.22;;
11319;SDS011;5715;48.234;14.320;2023-06-01T09:00:16;2.60;;;1.92;;
11319;SDS011;5715;48.234;14.320;2023-06-01T09:03:07;2.83;;;2.15;;
11319;SDS011;5715;48.234;14.320;2023-06-01T09:05:55;4.07;;;2.05;;
11319;SDS011;5715;48.234;14.320;2023-06-01T09:08:46;2.58;;;2.03;;
11319;SDS011;5715;48.234;14.320;2023-06-01T09:11:34;2.08;;;1.75;;
11319;SDS011;5715;48.234;14.320;2023-06-01T09:14:23;4.57;;;2.25;;
11319;SDS011;5715;48.234;14.320;2023-06-01T09:17:13;2.60;;;2.08;;
11319;SDS011;5715;48.234;14.320;2023-06-01T09:20:12;2.50;;;2.00;;
11319;SDS011;5715;48.234;14.320;2023-06-01T09:23:24;5.95;;;2.10;;
11319;SDS011;5715;48.234;14.320;2023-06-01T09:26:18;2.65;;;1.65;;
11319;SDS011;5715;48.234;14.320;2023-06-01T09:29:14;4.47;;;1.75;;
11319;SDS011;5715;48.234;14.320;2023-06-01T09:32:02;1.77;;;1.67;;
11319;SDS011;5715;48.234;14.320;2023-06-01T09:34:50;2.30;;;2.10;;
11319;SDS011;5715;48.234;14.320;2023-06-01T09:37:38;2.45;;;2.00;;
11319;SDS011;5715;48.234;14.320;2023-06-01T09:40:43;3.78;;;2.35;;
11319;SDS011;5715;48.234;14.320;2023-06-01T09:43:49;4.20;;;2.20;;
11319;SDS011;5715;48.234;14.320;2023-06-01T09:46:51;2.53;;;1.70;;
11319;SDS011;5715;48.234;14.320;2023-06-01T09:49:48;2.47;;;2.17;;
11319;SDS011;5715;48.234;14.320;2023-06-01T09:52:37;2.63;;;2.03;;
11319;SDS011;5715;48.234;14.320;2023-06-01T09:55:26;4.05;;;1.95;;
11319;SDS011;5715;48.234;14.320;2023-06-01T09:58:20;2.15;;;1.73;;
11319;SDS011;5715;48.234;14.320;2023-06-01T10:01:09;13.00;;;1.95;;
11319;SDS011;5715;48.234;14.320;2023-06-01T10:03:56;2.40;;;2.08;;
11319;SDS011;5715;48.234;14.320;2023-06-01T10:06:49;2.30;;;1.90;;
11319;SDS011;5715;48.234;14.320;2023-06-01T10:09:38;1.67;;;1.58;;
11319;SDS011;5715;48.234;14.320;2023-06-01T10:12:29;6.45;;;2.17;;
11319;SDS011;5715;48.234;14.320;2023-06-01T10:15:20;3.00;;;2.08;;
11319;SDS011;5715;48.234;14.320;2023-06-01T10:18:17;5.72;;;2.20;;
11319;SDS011;5715;48.234;14.320;2023-06-01T10:21:05;2.03;;;1.73;;
11319;SDS011;5715;48.234;14.320;2023-06-01T10:23:55;2.53;;;1.85;;
11319;SDS011;5715;48.234;14.320;2023-06-01T10:30:09;4.35;;;2.00;;
11319;SDS011;5715;48.234;14.320;2023-06-01T10:32:57;6.35;;;2.20;;
11319;SDS011;5715;48.234;14.320;2023-06-01T10:38:38;3.30;;;2.13;;
11319;SDS011;5715;48.234;14.320;2023-06-01T10:41:28;4.60;;;2.20;;
11319;SDS011;5715;48.234;14.320;2023-06-01T10:50:29;2.03;;;1.83;;
11319;SDS011;5715;48.234;14.320;2023-06-01T10:56:21;5.97;;;2.53;;
11319;SDS011;5715;48.234;14.320;2023-06-01T10:59:11;2.95;;;2.10;;
11319;SDS011;5715;48.234;14.320;2023-06-01T11:02:05;2.97;;;2.53;;
11319;SDS011;5715;48.234;14.320;2023-06-01T11:04:54;2.97;;;2.13;;
11319;SDS011;5715;48.234;14.320;2023-06-01T11:07:42;3.03;;;2.40;;
11319;SDS011;5715;48.234;14.320;2023-06-01T11:13:37;3.83;;;2.75;;
11319;SDS011;5715;48.234;14.320;2023-06-01T11:16:27;2.92;;;2.30;;
11319;SDS011;5715;48.234;14.320;2023-06-01T11:19:19;2.40;;;2.10;;
11319;SDS011;5715;48.234;14.320;2023-06-01T11:22:11;2.38;;;2.17;;
11319;SDS011;5715;48.234;14.320;2023-06-01T11:25:01;2.75;;;2.22;;
11319;SDS011;5715;48.234;14.320;2023-06-01T11:27:55;3.28;;;2.63;;
11319;SDS011;5715;48.234;14.320;2023-06-01T11:30:44;7.72;;;2.83;;
11319;SDS011;5715;48.234;14.320;2023-06-01T11:33:32;5.00;;;2.58;;
11319;SDS011;5715;48.234;14.320;2023-06-01T11:36:23;3.33;;;2.33;;
11319;SDS011;5715;48.234;14.320;2023-06-01T11:39:28;4.68;;;2.75;;
11319;SDS011;5715;48.234;14.320;2023-06-01T11:42:17;2.90;;;2.20;;
11319;SDS011;5715;48.234;14.320;2023-06-01T11:45:07;3.65;;;2.70;;
11319;SDS011;5715;48.234;14.320;2023-06-01T11:48:10;9.88;;;3.03;;
11319;SDS011;5715;48.234;14.320;2023-06-01T11:50:58;3.15;;;2.75;;
11319;SDS011;5715;48.234;14.320;2023-06-01T11:53:51;3.65;;;2.38;;
11319;SDS011;5715;48.234;14.320;2023-06-01T11:56:41;8.88;;;2.70;;
11319;SDS011;5715;48.234;14.320;2023-06-01T11:59:36;4.45;;;2.45;;
11319;SDS011;5715;48.234;14.320;2023-06-01T12:02:28;3.30;;;2.60;;
11319;SDS011;5715;48.234;14.320;2023-06-01T12:05:17;2.42;;;2.22;;
11319;SDS011;5715;48.234;14.320;2023-06-01T12:08:04;8.07;;;2.75;;
11319;SDS011;5715;48.234;14.320;2023-06-01T12:10:54;9.60;;;3.42;;
11319;SDS011;5715;48.234;14.320;2023-06-01T12:13:43;3.53;;;2.72;;
11319;SDS011;5715;48.234;14.320;2023-06-01T12:19:48;4.70;;;3.03;;
11319;SDS011;5715;48.234;14.320;2023-06-01T12:22:37;3.40;;;2.70;;
11319;SDS011;5715;48.234;14.320;2023-06-01T12:25:25;5.10;;;2.92;;
11319;SDS011;5715;48.234;14.320;2023-06-01T12:28:13;5.13;;;2.47;;
11319;SDS011;5715;48.234;14.320;2023-06-01T12:31:08;3.42;;;2.70;;
11319;SDS011;5715;48.234;14.320;2023-06-01T12:34:00;3.85;;;2.67;;
11319;SDS011;5715;48.234;14.320;2023-06-01T12:36:47;3.78;;;2.70;;
11319;SDS011;5715;48.234;14.320;2023-06-01T12:39:35;4.88;;;3.08;;
11319;SDS011;5715;48.234;14.320;2023-06-01T12:42:33;6.45;;;3.92;;
11319;SDS011;5715;48.234;14.320;2023-06-01T12:45:34;4.50;;;3.00;;
11319;SDS011;5715;48.234;14.320;2023-06-01T12:48:30;3.10;;;2.80;;
11319;SDS011;5715;48.234;14.320;2023-06-01T12:51:24;3.50;;;2.65;;
11319;SDS011;5715;48.234;14.320;2023-06-01T12:54:12;7.22;;;2.40;;
11319;SDS011;5715;48.234;14.320;2023-06-01T12:57:00;5.30;;;3.00;;
11319;SDS011;5715;48.234;14.320;2023-06-01T12:59:48;3.63;;;2.63;;
11319;SDS011;5715;48.234;14.320;2023-06-01T13:02:37;2.97;;;2.55;;
11319;SDS011;5715;48.234;14.320;2023-06-01T13:05:25;5.25;;;2.65;;
11319;SDS011;5715;48.234;14.320;2023-06-01T13:08:13;3.95;;;2.65;;
11319;SDS011;5715;48.234;14.320;2023-06-01T13:11:03;5.32;;;3.00;;
11319;SDS011;5715;48.234;14.320;2023-06-01T13:13:51;3.75;;;2.90;;
11319;SDS011;5715;48.234;14.320;2023-06-01T13:16:39;4.22;;;3.00;;
11319;SDS011;5715;48.234;14.320;2023-06-01T13:19:29;3.85;;;2.78;;
11319;SDS011;5715;48.234;14.320;2023-06-01T13:22:16;4.10;;;2.60;;
11319;SDS011;5715;48.234;14.320;2023-06-01T13:25:04;7.50;;;2.47;;
11319;SDS011;5715;48.234;14.320;2023-06-01T13:27:52;6.45;;;2.92;;
11319;SDS011;5715;48.234;14.320;2023-06-01T13:30:40;3.35;;;2.83;;
11319;SDS011;5715;48.234;14.320;2023-06-01T13:33:28;4.20;;;2.72;;
11319;SDS011;5715;48.234;14.320;2023-06-01T13:36:16;3.63;;;2.42;;
11319;SDS011;5715;48.234;14.320;2023-06-01T13:39:04;4.85;;;3.10;;
11319;SDS011;5715;48.234;14.320;2023-06-01T13:41:51;4.18;;;3.60;;
11319;SDS011;5715;48.234;14.320;2023-06-01T13:44:39;4.05;;;2.58;;
11319;SDS011;5715;48.234;14.320;2023-06-01T13:47:32;7.10;;;3.00;;
11319;SDS011;5715;48.234;14.320;2023-06-01T13:50:20;4.22;;;2.78;;
11319;SDS011;5715;48.234;14.320;2023-06-01T13:53:08;2.88;;;2.55;;
11319;SDS011;5715;48.234;14.320;2023-06-01T13:55:56;6.20;;;2.80;;
11319;SDS011;5715;48.234;14.320;2023-06-01T13:58:46;3.33;;;2.47;;
11319;SDS011;5715;48.234;14.320;2023-06-01T14:01:35;6.10;;;2.60;;
11319;SDS011;5715;48.234;14.320;2023-06-01T14:04:22;3.92;;;2.78;;
11319;SDS011;5715;48.234;14.320;2023-06-01T14:07:12;5.68;;;2.65;;
11319;SDS011;5715;48.234;14.320;2023-06-01T14:10:00;3.15;;;2.55;;
11319;SDS011;5715;48.234;14.320;2023-06-01T14:12:50;3.15;;;2.70;;
11319;SDS011;5715;48.234;14.320;2023-06-01T14:15:38;4.05;;;2.90;;
11319;SDS011;5715;48.234;14.320;2023-06-01T14:18:26;3.58;;;2.78;;
11319;SDS011;5715;48.234;14.320;2023-06-01T14:21:13;4.82;;;2.85;;
11319;SDS011;5715;48.234;14.320;2023-06-01T14:24:01;3.50;;;2.60;;
11319;SDS011;5715;48.234;14.320;2023-06-01T14:26:50;3.00;;;2.70;;
11319;SDS011;5715;48.234;14.320;2023-06-01T14:29:37;3.45;;;2.63;;
11319;SDS011;5715;48.234;14.320;2023-06-01T14:32:27;2.85;;;2.55;;
11319;SDS011;5715;48.234;14.320;2023-06-01T14:35:15;5.45;;;2.80;;
11319;SDS011;5715;48.234;14.320;2023-06-01T14:38:03;2.72;;;2.53;;
11319;SDS011;5715;48.234;14.320;2023-06-01T14:40:50;3.17;;;2.80;;
11319;SDS011;5715;48.234;14.320;2023-06-01T14:43:38;3.20;;;2.67;;
11319;SDS011;5715;48.234;14.320;2023-06-01T14:46:26;7.85;;;2.60;;
11319;SDS011;5715;48.234;14.320;2023-06-01T14:49:13;3.53;;;2.70;;
11319;SDS011;5715;48.234;14.320;2023-06-01T14:52:01;3.38;;;2.80;;
11319;SDS011;5715;48.234;14.320;2023-06-01T14:54:48;4.93;;;2.83;;
11319;SDS011;5715;48.234;14.320;2023-06-01T14:57:36;3.78;;;2.90;;
11319;SDS011;5715;48.234;14.320;2023-06-01T15:00:24;3.53;;;2.70;;
11319;SDS011;5715;48.234;14.320;2023-06-01T15:03:11;3.17;;;2.70;;
11319;SDS011;5715;48.234;14.320;2023-06-01T15:05:59;3.20;;;2.80;;
11319;SDS011;5715;48.234;14.320;2023-06-01T15:08:47;2.58;;;2.17;;
11319;SDS011;5715;48.234;14.320;2023-06-01T15:11:35;2.67;;;2.25;;
11319;SDS011;5715;48.234;14.320;2023-06-01T15:14:22;6.20;;;2.45;;
11319;SDS011;5715;48.234;14.320;2023-06-01T15:17:10;3.90;;;2.63;;
11319;SDS011;5715;48.234;14.320;2023-06-01T15:19:58;3.40;;;2.80;;
11319;SDS011;5715;48.234;14.320;2023-06-01T15:22:45;3.38;;;2.40;;
11319;SDS011;5715;48.234;14.320;2023-06-01T15:25:33;5.22;;;2.70;;
11319;SDS011;5715;48.234;14.320;2023-06-01T15:28:20;2.85;;;2.53;;
11319;SDS011;5715;48.234;14.320;2023-06-01T15:31:09;3.65;;;2.78;;
11319;SDS011;5715;48.234;14.320;2023-06-01T15:33:57;3.10;;;2.58;;
11319;SDS011;5715;48.234;14.320;2023-06-01T15:36:45;3.13;;;2.80;;
11319;SDS011;5715;48.234;14.320;2023-06-01T15:39:33;4.15;;;3.20;;
11319;SDS011;5715;48.234;14.320;2023-06-01T15:42:22;6.55;;;2.53;;
11319;SDS011;5715;48.234;14.320;2023-06-01T15:45:09;2.97;;;2.67;;
11319;SDS011;5715;48.234;14.320;2023-06-01T15:47:57;6.88;;;2.50;;
11319;SDS011;5715;48.234;14.320;2023-06-01T15:50:45;3.13;;;2.28;;
11319;SDS011;5715;48.234;14.320;2023-06-01T15:53:32;4.13;;;2.63;;
11319;SDS011;5715;48.234;14.320;2023-06-01T15:56:20;3.55;;;2.42;;
11319;SDS011;5715;48.234;14.320;2023-06-01T15:59:08;3.17;;;2.30;;
11319;SDS011;5715;48.234;14.320;2023-06-01T16:01:56;2.33;;;2.13;;
11319;SDS011;5715;48.234;14.320;2023-06-01T16:04:43;3.00;;;2.17;;
11319;SDS011;5715;48.234;14.320;2023-06-01T16:07:31;4.22;;;2.47;;
11319;SDS011;5715;48.234;14.320;2023-06-01T16:10:19;3.28;;;2.95;;
11319;SDS011;5715;48.234;14.320;2023-06-01T16:13:06;3.60;;;2.60;;
11319;SDS011;5715;48.234;14.320;2023-06-01T16:15:54;5.10;;;2.58;;
11319;SDS011;5715;48.234;14.320;2023-06-01T16:18:42;5.85;;;2.67;;
11319;SDS011;5715;48.234;14.320;2023-06-01T16:21:30;5.57;;;3.03;;
11319;SDS011;5715;48.234;14.320;2023-06-01T16:24:18;3.80;;;2.70;;
11319;SDS011;5715;48.234;14.320;2023-06-01T16:27:06;3.20;;;2.50;;
11319;SDS011;5715;48.234;14.320;2023-06-01T16:29:55;2.53;;;2.05;;
11319;SDS011;5715;48.234;14.320;2023-06-01T16:32:44;4.15;;;2.80;;
11319;SDS011;5715;48.234;14.320;2023-06-01T16:35:32;3.45;;;2.80;;
11319;SDS011;5715;48.234;14.320;2023-06-01T16:38:19;3.00;;;2.42;;
11319;SDS011;5715;48.234;14.320;2023-06-01T16:41:07;6.47;;;2.72;;
11319;SDS011;5715;48.234;14.320;2023-06-01T16:43:55;2.97;;;2.33;;
11319;SDS011;5715;48.234;14.320;2023-06-01T16:46:43;2.15;;;1.95;;
11319;SDS011;5715;48.234;14.320;2023-06-01T16:49:31;5.20;;;2.80;;
11319;SDS011;5715;48.234;14.320;2023-06-01T16:52:19;3.67;;;2.80;;
11319;SDS011;5715;48.234;14.320;2023-06-01T16:55:06;3.10;;;2.40;;
11319;SDS011;5715;48.234;14.320;2023-06-01T16:57:54;4.28;;;2.70;;
11319;SDS011;5715;48.234;14.320;2023-06-01T17:00:42;4.47;;;2.80;;
11319;SDS011;5715;48.234;14.320;2023-06-01T17:03:29;5.43;;;2.50;;
11319;SDS011;5715;48.234;14.320;2023-06-01T17:06:17;4.05;;;2.70;;
11319;SDS011;5715;48.234;14.320;2023-06-01T17:09:07;5.35;;;2.50;;
11319;SDS011;5715;48.234;14.320;2023-06-01T17:11:54;3.42;;;2.72;;
11319;SDS011;5715;48.234;14.320;2023-06-01T17:14:45;4.22;;;2.72;;
11319;SDS011;5715;48.234;14.320;2023-06-01T17:17:33;5.75;;;2.63;;
11319;SDS011;5715;48.234;14.320;2023-06-01T17:20:21;3.33;;;2.85;;
11319;SDS011;5715;48.234;14.320;2023-06-01T17:23:09;4.03;;;2.08;;
11319;SDS011;5715;48.234;14.320;2023-06-01T17:25:56;3.17;;;2.60;;
11319;SDS011;5715;48.234;14.320;2023-06-01T17:28:44;4.00;;;2.50;;
11319;SDS011;5715;48.234;14.320;2023-06-01T17:31:32;4.53;;;2.50;;
11319;SDS011;5715;48.234;14.320;2023-06-01T17:34:19;5.05;;;2.58;;
11319;SDS011;5715;48.234;14.320;2023-06-01T17:37:07;3.63;;;2.35;;
11319;SDS011;5715;48.234;14.320;2023-06-01T17:39:54;4.93;;;2.50;;